createdAt,value
2018-05-29T00:00:31.041Z,20.60
2018-05-29T00:02:59.317Z,20.73
2018-05-29T00:05:28.384Z,19.57
2018-05-29T00:07:56.668Z,20.07
2018-05-29T00:10:25.099Z,19.53
2018-05-29T00:12:53.355Z,20.23
2018-05-29T00:15:21.677Z,18.53
2018-05-29T00:17:49.992Z,19.03
2018-05-29T00:20:18.385Z,20.00
2018-05-29T00:22:47.433Z,18.97
2018-05-29T00:25:15.717Z,20.80
2018-05-29T00:27:44.081Z,20.60
2018-05-29T00:30:12.474Z,19.70
2018-05-29T00:32:40.727Z,19.23
2018-05-29T00:35:09.775Z,20.30
2018-05-29T00:37:38.162Z,19.23
2018-05-29T00:40:06.450Z,19.13
2018-05-29T00:42:34.729Z,19.23
2018-05-29T00:45:03.843Z,20.23
2018-05-29T00:47:32.132Z,20.57
2018-05-29T00:50:01.241Z,19.80
2018-05-29T00:52:29.525Z,20.03
2018-05-29T00:55:16.310Z,20.50
2018-05-29T00:57:44.666Z,19.13
2018-05-29T01:00:14.733Z,20.85
2018-05-29T01:02:43.182Z,20.30
2018-05-29T01:05:11.478Z,20.40
2018-05-29T01:07:39.753Z,20.67
2018-05-29T01:10:08.887Z,21.27
2018-05-29T01:12:37.217Z,21.00
2018-05-29T01:15:05.463Z,21.20
2018-05-29T01:17:33.741Z,21.73
2018-05-29T01:20:02.039Z,20.60
2018-05-29T01:22:30.427Z,22.13
2018-05-29T01:24:59.536Z,21.80
2018-05-29T01:27:28.633Z,22.47
2018-05-29T01:29:56.901Z,22.50
2018-05-29T01:32:25.226Z,23.60
2018-05-29T01:34:53.501Z,22.90
2018-05-29T01:37:22.553Z,23.27
2018-05-29T01:39:50.900Z,23.30
2018-05-29T01:42:20.130Z,23.63
2018-05-29T01:44:48.407Z,22.37
2018-05-29T01:47:18.427Z,24.27
2018-05-29T01:49:47.485Z,24.47
2018-05-29T01:52:15.833Z,23.63
2018-05-29T01:54:44.899Z,22.77
2018-05-29T01:57:13.193Z,20.93
2018-05-29T01:59:41.482Z,22.27
2018-05-29T02:02:09.770Z,23.20
2018-05-29T02:04:38.179Z,22.47
2018-05-29T02:07:06.372Z,23.67
2018-05-29T02:09:34.663Z,22.80
2018-05-29T02:12:02.942Z,24.07
2018-05-29T02:14:31.499Z,24.70
2018-05-29T02:16:59.785Z,24.30
2018-05-29T02:19:28.124Z,24.97
2018-05-29T02:21:56.465Z,23.53
2018-05-29T02:24:24.745Z,23.70
2018-05-29T02:26:53.028Z,22.75
2018-05-29T02:29:22.147Z,23.30
2018-05-29T02:31:51.263Z,24.87
2018-05-29T02:34:19.519Z,24.17
2018-05-29T02:36:47.817Z,23.20
2018-05-29T02:39:16.130Z,23.07
2018-05-29T02:41:44.473Z,22.60
2018-05-29T02:44:13.630Z,23.67
2018-05-29T02:46:41.922Z,22.55
2018-05-29T02:49:10.945Z,24.07
2018-05-29T02:51:39.425Z,23.23
2018-05-29T02:54:07.828Z,24.03
2018-05-29T02:56:36.085Z,24.53
2018-05-29T02:59:04.343Z,23.83
2018-05-29T03:01:32.691Z,23.40
2018-05-29T03:04:01.803Z,25.43
2018-05-29T03:06:30.064Z,23.00
2018-05-29T03:08:59.152Z,23.60
2018-05-29T03:11:27.482Z,23.57
2018-05-29T03:13:56.588Z,24.93
2018-05-29T03:16:25.717Z,25.17
2018-05-29T03:18:53.968Z,24.83
2018-05-29T03:21:22.291Z,27.40
2018-05-29T03:23:51.362Z,28.67
2018-05-29T03:26:19.897Z,27.67
2018-05-29T03:28:48.931Z,25.43
2018-05-29T03:31:17.297Z,27.53
2018-05-29T03:33:45.692Z,28.97
2018-05-29T03:36:14.748Z,26.33
2018-05-29T03:38:43.069Z,25.57
2018-05-29T03:41:13.658Z,25.73
2018-05-29T03:43:43.031Z,25.07
2018-05-29T03:46:12.071Z,25.87
2018-05-29T03:48:40.347Z,25.40
2018-05-29T03:51:08.651Z,26.47
2018-05-29T03:53:37.024Z,26.07
2018-05-29T03:56:05.318Z,25.47
2018-05-29T03:58:34.429Z,25.17
2018-05-29T04:01:02.773Z,25.13
2018-05-29T04:03:31.112Z,25.70
2018-05-29T04:06:00.269Z,25.77
2018-05-29T04:08:28.615Z,26.53
2018-05-29T04:10:57.666Z,28.43
2018-05-29T04:13:26.018Z,27.83
2018-05-29T04:15:54.351Z,25.80
2018-05-29T04:18:23.414Z,26.87
2018-05-29T04:20:51.664Z,26.73
2018-05-29T04:23:19.997Z,25.43
2018-05-29T04:25:49.117Z,26.07
2018-05-29T04:28:17.602Z,23.13
2018-05-29T04:30:45.897Z,24.03
2018-05-29T04:33:14.198Z,24.97
2018-05-29T04:35:42.585Z,25.30
2018-05-29T04:38:11.073Z,27.40
2018-05-29T04:40:39.325Z,28.13
2018-05-29T04:43:07.603Z,24.63
2018-05-29T04:45:35.939Z,25.20
2018-05-29T04:48:04.976Z,26.93
2018-05-29T04:50:33.344Z,27.00
2018-05-29T04:53:01.632Z,29.27
2018-05-29T04:55:29.905Z,25.07
2018-05-29T04:57:58.942Z,25.70
2018-05-29T05:00:27.219Z,24.60
2018-05-29T05:02:55.538Z,24.97
2018-05-29T05:05:23.783Z,25.03
2018-05-29T05:07:52.927Z,24.60
2018-05-29T05:10:24.462Z,24.33
2018-05-29T05:12:53.648Z,24.20
2018-05-29T05:15:21.976Z,24.17
2018-05-29T05:17:52.058Z,25.23
2018-05-29T05:20:21.472Z,24.47
2018-05-29T05:22:51.803Z,23.80
2018-05-29T05:25:21.508Z,22.00
2018-05-29T05:27:49.880Z,22.03
2018-05-29T05:30:20.079Z,20.90
2018-05-29T05:32:49.483Z,21.03
2018-05-29T05:35:19.681Z,21.83
2018-05-29T05:37:50.108Z,21.07
2018-05-29T05:40:18.429Z,20.37
2018-05-29T05:42:47.510Z,18.50
2018-05-29T05:45:15.920Z,19.60
2018-05-29T05:47:44.217Z,19.87
2018-05-29T05:50:12.483Z,18.17
2018-05-29T05:52:40.917Z,17.57
2018-05-29T05:55:09.171Z,18.23
2018-05-29T05:57:37.439Z,18.00
2018-05-29T06:00:06.467Z,17.33
2018-05-29T06:02:34.750Z,16.37
2018-05-29T06:05:03.042Z,16.00
2018-05-29T06:07:32.155Z,17.20
2018-05-29T06:10:01.334Z,17.03
2018-05-29T06:12:29.601Z,16.47
2018-05-29T06:14:58.663Z,13.93
2018-05-29T06:17:27.757Z,14.73
2018-05-29T06:19:56.797Z,15.93
2018-05-29T06:22:25.088Z,14.33
2018-05-29T06:24:53.362Z,15.57
2018-05-29T06:27:21.651Z,15.10
2018-05-29T06:29:50.713Z,14.13
2018-05-29T06:32:18.996Z,13.93
2018-05-29T06:34:47.275Z,15.38
2018-05-29T06:37:15.599Z,13.60
2018-05-29T06:39:43.855Z,12.37
2018-05-29T06:42:12.163Z,13.00
2018-05-29T06:44:40.432Z,13.83
2018-05-29T06:47:08.710Z,12.60
2018-05-29T06:49:37.001Z,11.67
2018-05-29T06:52:05.376Z,10.90
2018-05-29T06:54:33.653Z,11.90
2018-05-29T06:57:02.744Z,10.60
2018-05-29T06:59:31.885Z,11.60
2018-05-29T07:02:00.937Z,11.10
2018-05-29T07:04:29.281Z,10.30
2018-05-29T07:06:58.314Z,11.73
2018-05-29T07:09:33.511Z,9.57
2018-05-29T07:12:01.837Z,9.20
2018-05-29T07:14:30.151Z,9.23
2018-05-29T07:16:58.450Z,8.93
2018-05-29T07:19:26.730Z,9.23
2018-05-29T07:21:54.991Z,9.27
2018-05-29T07:24:23.258Z,9.33
2018-05-29T07:26:51.644Z,9.77
2018-05-29T07:29:19.901Z,9.67
2018-05-29T07:31:48.259Z,9.10
2018-05-29T07:34:17.373Z,8.80
2018-05-29T07:36:45.765Z,10.07
2018-05-29T07:39:14.098Z,9.73
2018-05-29T07:41:43.143Z,9.73
2018-05-29T07:44:12.186Z,9.83
2018-05-29T07:46:40.455Z,8.93
2018-05-29T07:49:08.744Z,9.33
2018-05-29T07:51:37.033Z,9.30
2018-05-29T07:54:06.083Z,9.87
2018-05-29T07:56:34.380Z,10.30
2018-05-29T07:59:02.733Z,9.77
2018-05-29T08:01:31.029Z,10.30
2018-05-29T08:03:59.296Z,9.67
2018-05-29T08:06:28.368Z,9.43
2018-05-29T08:08:56.618Z,9.03
2018-05-29T08:11:25.681Z,10.10
2018-05-29T08:13:53.937Z,10.00
2018-05-29T08:16:22.234Z,10.80
2018-05-29T08:18:51.563Z,9.90
2018-05-29T08:21:19.901Z,10.57
2018-05-29T08:23:48.950Z,9.67
2018-05-29T08:26:17.310Z,9.67
2018-05-29T08:28:45.594Z,10.30
2018-05-29T08:31:14.696Z,9.43
2018-05-29T08:33:43.762Z,10.33
2018-05-29T08:36:12.118Z,9.90
2018-05-29T08:38:40.394Z,10.23
2018-05-29T08:41:08.673Z,9.50
2018-05-29T08:43:37.702Z,10.00
2018-05-29T08:46:06.013Z,9.50
2018-05-29T08:48:34.279Z,9.43
2018-05-29T08:51:02.566Z,10.10
2018-05-29T08:53:30.843Z,9.10
2018-05-29T08:55:59.131Z,9.17
2018-05-29T08:58:28.152Z,8.63
2018-05-29T09:00:56.471Z,9.83
2018-05-29T09:03:24.838Z,9.77
2018-05-29T09:05:53.877Z,9.93
2018-05-29T09:08:22.134Z,9.03
2018-05-29T09:10:52.095Z,10.27
2018-05-29T09:13:20.371Z,10.97
2018-05-29T09:15:48.627Z,10.18
2018-05-29T09:18:17.706Z,10.70
2018-05-29T09:20:46.151Z,10.97
2018-05-29T09:23:14.396Z,10.10
2018-05-29T09:25:42.726Z,10.73
2018-05-29T09:28:11.777Z,10.37
2018-05-29T09:30:44.116Z,11.27
2018-05-29T09:33:13.863Z,11.03
2018-05-29T09:35:42.155Z,10.93
2018-05-29T09:38:10.443Z,10.20
2018-05-29T09:40:38.709Z,11.10
2018-05-29T09:43:07.757Z,10.30
2018-05-29T09:45:36.053Z,10.77
2018-05-29T09:48:04.308Z,10.17
2018-05-29T09:50:32.580Z,10.60
2018-05-29T09:53:01.620Z,9.90
2018-05-29T09:55:29.911Z,10.10
2018-05-29T09:57:58.187Z,10.20
2018-05-29T10:00:32.627Z,10.13
2018-05-29T10:03:01.666Z,10.67
2018-05-29T10:05:29.935Z,10.47
2018-05-29T10:07:58.250Z,10.27
2018-05-29T10:10:26.522Z,9.80
2018-05-29T10:12:54.787Z,10.27
2018-05-29T10:15:23.823Z,9.63
2018-05-29T10:17:52.085Z,9.80
2018-05-29T10:20:21.141Z,10.17
2018-05-29T10:22:49.419Z,10.47
2018-05-29T10:25:17.703Z,9.60
2018-05-29T10:27:45.967Z,10.77
2018-05-29T10:30:14.278Z,10.10
2018-05-29T10:32:42.579Z,10.23
2018-05-29T10:35:10.850Z,10.10
2018-05-29T10:37:39.149Z,10.67
2018-05-29T10:40:07.426Z,10.17
2018-05-29T10:42:35.740Z,10.33
2018-05-29T10:45:07.039Z,10.23
2018-05-29T10:47:35.316Z,9.97
2018-05-29T10:50:03.594Z,11.10
2018-05-29T10:52:31.967Z,11.07
2018-05-29T10:55:00.263Z,10.87
2018-05-29T10:57:28.519Z,11.70
2018-05-29T10:59:57.589Z,11.33
2018-05-29T11:02:25.868Z,11.07
2018-05-29T11:04:54.139Z,11.93
2018-05-29T11:07:22.432Z,11.07
2018-05-29T11:09:50.701Z,11.30
2018-05-29T11:12:18.981Z,11.07
2018-05-29T11:14:48.042Z,11.13
2018-05-29T11:17:16.379Z,12.13
2018-05-29T11:19:45.473Z,11.80
2018-05-29T11:22:13.801Z,12.30
2018-05-29T11:24:42.063Z,11.37
2018-05-29T11:27:11.099Z,11.90
2018-05-29T11:29:40.499Z,11.52
2018-05-29T11:32:08.772Z,11.97
2018-05-29T11:34:37.822Z,12.80
2018-05-29T11:37:06.204Z,11.50
2018-05-29T11:39:34.473Z,12.80
2018-05-29T11:42:03.509Z,12.77
2018-05-29T11:44:31.825Z,12.07
2018-05-29T11:47:00.107Z,12.77
2018-05-29T11:49:28.389Z,12.40
2018-05-29T11:51:56.663Z,13.13
2018-05-29T11:54:24.919Z,12.73
2018-05-29T11:56:53.196Z,13.20
2018-05-29T11:59:21.537Z,12.10
2018-05-29T12:01:49.879Z,11.87
2018-05-29T12:04:18.111Z,11.93
2018-05-29T12:06:47.178Z,12.33
2018-05-29T12:09:15.443Z,12.20
2018-05-29T12:11:43.743Z,11.97
2018-05-29T12:14:12.049Z,12.77
2018-05-29T12:16:40.389Z,12.87
2018-05-29T12:19:09.426Z,12.07
2018-05-29T12:21:37.709Z,12.17
2018-05-29T12:24:05.975Z,13.10
2018-05-29T12:26:34.266Z,11.97
2018-05-29T12:29:03.322Z,12.77
2018-05-29T12:31:31.589Z,13.40
2018-05-29T12:33:59.881Z,13.30
2018-05-29T12:36:28.210Z,12.43
2018-05-29T12:38:56.476Z,12.77
2018-05-29T12:41:25.525Z,13.33
2018-05-29T12:43:54.656Z,13.03
2018-05-29T12:46:23.677Z,12.70
2018-05-29T12:48:51.954Z,13.50
2018-05-29T12:51:20.227Z,13.07
2018-05-29T12:53:49.351Z,12.90
2018-05-29T12:56:17.617Z,13.10
2018-05-29T12:58:46.686Z,12.60
2018-05-29T13:01:14.964Z,13.47
2018-05-29T13:03:43.232Z,12.83
2018-05-29T13:06:11.516Z,13.77
2018-05-29T13:08:40.533Z,13.60
2018-05-29T13:11:08.805Z,13.83
2018-05-29T13:13:37.848Z,13.50
2018-05-29T13:16:06.145Z,12.80
2018-05-29T13:18:34.510Z,13.80
2018-05-29T13:21:02.784Z,13.23
2018-05-29T13:23:31.818Z,13.37
2018-05-29T13:26:00.108Z,14.40
2018-05-29T13:28:29.389Z,14.10
2018-05-29T13:30:57.701Z,14.23
2018-05-29T13:33:25.991Z,17.07
2018-05-29T13:35:55.051Z,14.57
2018-05-29T13:38:23.314Z,14.10
2018-05-29T13:40:51.597Z,13.77
2018-05-29T13:43:19.975Z,15.10
2018-05-29T13:45:48.241Z,14.27
2018-05-29T13:48:17.378Z,14.17
2018-05-29T13:50:45.703Z,14.00
2018-05-29T13:53:13.973Z,14.35
2018-05-29T13:55:42.348Z,13.93
2018-05-29T13:58:10.637Z,14.33
2018-05-29T14:00:38.915Z,14.97
2018-05-29T14:03:07.954Z,14.80
2018-05-29T14:05:36.249Z,15.00
2018-05-29T14:08:04.590Z,14.93
2018-05-29T14:10:33.611Z,14.90
2018-05-29T14:13:02.661Z,14.67
2018-05-29T14:15:30.940Z,14.77
2018-05-29T14:17:59.205Z,15.07
2018-05-29T14:20:28.247Z,15.70
2018-05-29T14:22:56.573Z,31.27
2018-05-29T14:25:24.855Z,33.83
2018-05-29T14:27:53.132Z,35.00
2018-05-29T14:30:21.483Z,33.10
2018-05-29T14:32:50.504Z,34.23
2018-05-29T14:35:18.782Z,35.27
2018-05-29T14:37:47.082Z,34.70
2018-05-29T14:40:15.377Z,35.78
2018-05-29T14:42:43.669Z,32.73
2018-05-29T14:45:11.947Z,35.20
2018-05-29T14:47:40.232Z,34.07
2018-05-29T14:50:08.522Z,33.97
2018-05-29T14:52:36.813Z,28.00
2018-05-29T14:55:05.835Z,23.87
2018-05-29T14:57:34.113Z,14.57
2018-05-29T15:00:02.406Z,10.33
2018-05-29T15:02:30.672Z,8.80
2018-05-29T15:04:58.959Z,8.73
2018-05-29T15:07:27.197Z,7.53
2018-05-29T15:09:55.518Z,7.73
2018-05-29T15:12:23.792Z,8.03
2018-05-29T15:14:52.047Z,7.77
2018-05-29T15:17:20.328Z,7.73
2018-05-29T15:19:48.614Z,7.90
2018-05-29T15:22:17.647Z,8.03
2018-05-29T15:24:46.016Z,7.90
2018-05-29T15:27:14.317Z,8.52
2018-05-29T15:29:42.820Z,9.07
2018-05-29T15:32:11.092Z,9.47
2018-05-29T15:34:41.136Z,10.47
2018-05-29T15:37:09.936Z,10.63
2018-05-29T15:39:40.958Z,9.93
2018-05-29T15:42:10.879Z,9.27
2018-05-29T15:44:39.147Z,10.63
2018-05-29T15:47:07.415Z,11.32
2018-05-29T15:49:38.033Z,11.93
2018-05-29T15:52:07.358Z,12.63
2018-05-29T15:54:36.494Z,12.83
2018-05-29T15:57:04.761Z,15.03
2018-05-29T15:59:33.783Z,16.33
2018-05-29T16:02:02.086Z,15.37
2018-05-29T16:04:30.469Z,16.50
2018-05-29T16:06:59.583Z,11.73
2018-05-29T16:09:27.898Z,10.53
2018-05-29T16:11:56.169Z,12.43
2018-05-29T16:14:24.457Z,14.40
2018-05-29T16:16:52.719Z,15.27
2018-05-29T16:19:21.895Z,13.20
2018-05-29T16:21:50.736Z,12.83
2018-05-29T16:24:19.052Z,10.70
2018-05-29T16:26:47.352Z,10.73
2018-05-29T16:29:15.635Z,10.73
2018-05-29T16:31:43.944Z,10.60
2018-05-29T16:34:12.258Z,11.37
2018-05-29T16:36:40.561Z,12.63
2018-05-29T16:39:08.853Z,13.07
2018-05-29T16:41:37.116Z,14.60
2018-05-29T16:44:05.471Z,16.20
2018-05-29T16:46:33.763Z,16.23
2018-05-29T16:49:02.075Z,18.97
2018-05-29T16:51:30.343Z,15.43
2018-05-29T16:53:59.557Z,14.57
2018-05-29T16:56:27.836Z,13.73
2018-05-29T16:58:57.057Z,14.70
2018-05-29T17:01:25.459Z,17.83
2018-05-29T17:03:53.733Z,18.17
2018-05-29T17:06:22.791Z,13.23
2018-05-29T17:08:51.087Z,14.20
2018-05-29T17:11:19.368Z,13.83
2018-05-29T17:13:47.617Z,14.53
2018-05-29T17:16:15.931Z,16.20
2018-05-29T17:18:44.233Z,16.07
2018-05-29T17:21:13.015Z,17.23
2018-05-29T17:23:41.301Z,16.93
2018-05-29T17:26:09.586Z,19.03
2018-05-29T17:28:37.869Z,20.20
2018-05-29T17:31:06.980Z,20.55
2018-05-29T17:33:35.247Z,20.33
2018-05-29T17:36:04.283Z,19.37
2018-05-29T17:38:32.594Z,22.37
2018-05-29T17:41:00.865Z,20.63
2018-05-29T17:43:29.137Z,20.93
2018-05-29T17:45:58.218Z,21.03
2018-05-29T17:48:26.762Z,20.07
2018-05-29T17:50:55.163Z,22.70
2018-05-29T17:53:23.460Z,21.37
2018-05-29T17:55:51.795Z,22.03
2018-05-29T17:58:20.070Z,22.77
2018-05-29T18:00:49.122Z,22.80
2018-05-29T18:03:18.169Z,22.37
2018-05-29T18:05:46.439Z,20.87
2018-05-29T18:08:16.066Z,20.10
2018-05-29T18:10:44.556Z,19.30
2018-05-29T18:13:12.954Z,18.48
2018-05-29T18:15:41.261Z,16.53
2018-05-29T18:18:10.645Z,16.50
2018-05-29T18:20:39.672Z,20.80
2018-05-29T18:23:07.947Z,17.33
2018-05-29T18:25:36.220Z,32.07
2018-05-29T18:28:05.253Z,152.80
2018-05-29T18:30:33.564Z,33.87
2018-05-29T18:33:02.240Z,17.75
2018-05-29T18:35:30.523Z,14.17
2018-05-29T18:37:58.805Z,21.53
2018-05-29T18:40:27.103Z,25.90
2018-05-29T18:42:55.365Z,21.20
2018-05-29T18:45:24.509Z,14.53
2018-05-29T18:47:53.828Z,13.97
2018-05-29T18:50:22.101Z,14.37
2018-05-29T18:52:50.426Z,14.53
2018-05-29T18:55:18.709Z,11.97
2018-05-29T18:57:47.189Z,12.67
2018-05-29T19:00:16.403Z,11.23
2018-05-29T19:02:44.690Z,13.93
2018-05-29T19:05:12.965Z,14.10
2018-05-29T19:07:42.025Z,14.87
2018-05-29T19:10:11.261Z,12.77
2018-05-29T19:12:39.532Z,13.48
2018-05-29T19:15:09.572Z,14.40
2018-05-29T19:17:37.942Z,11.90
2018-05-29T19:20:06.246Z,11.67
2018-05-29T19:22:35.287Z,12.73
2018-05-29T19:25:04.334Z,11.63
2018-05-29T19:27:32.618Z,11.73
2018-05-29T19:30:01.035Z,12.17
2018-05-29T19:32:29.302Z,11.97
2018-05-29T19:34:58.589Z,10.13
2018-05-29T19:37:27.716Z,11.50
2018-05-29T19:39:56.754Z,10.33
2018-05-29T19:42:25.772Z,9.30
2018-05-29T19:44:57.416Z,10.00
2018-05-29T19:47:25.753Z,8.27
2018-05-29T19:49:56.585Z,7.83
2018-05-29T19:52:25.434Z,8.50
2018-05-29T19:54:54.072Z,7.30
2018-05-29T19:57:23.550Z,6.97
2018-05-29T19:59:52.030Z,7.37
2018-05-29T20:02:22.357Z,6.63
2018-05-29T20:04:50.829Z,6.93
2018-05-29T20:07:19.654Z,6.93
2018-05-29T20:09:47.987Z,7.37
2018-05-29T20:12:16.407Z,7.70
2018-05-29T20:14:44.680Z,7.00
2018-05-29T20:17:13.162Z,7.17
2018-05-29T20:19:41.449Z,7.77
2018-05-29T20:22:11.462Z,7.37
2018-05-29T20:24:41.031Z,6.73
2018-05-29T20:27:09.602Z,6.83
2018-05-29T20:29:39.198Z,6.73
2018-05-29T20:32:07.748Z,5.57
2018-05-29T20:34:36.318Z,5.80
2018-05-29T20:37:05.156Z,5.70
2018-05-29T20:39:33.570Z,5.50
2018-05-29T20:42:02.437Z,5.77
2018-05-29T20:44:30.963Z,5.73
2018-05-29T20:46:59.608Z,5.67
2018-05-29T20:49:28.241Z,5.10
2018-05-29T20:51:56.670Z,5.63
2018-05-29T20:54:25.671Z,5.43
2018-05-29T20:56:54.480Z,5.50
2018-05-29T20:59:23.675Z,5.67
2018-05-29T21:01:52.109Z,5.75
2018-05-29T21:04:21.436Z,6.37
2018-05-29T21:06:49.935Z,6.03
2018-05-29T21:09:18.879Z,6.47
2018-05-29T21:11:47.645Z,5.87
2018-05-29T21:14:18.324Z,6.03
2018-05-29T21:16:47.556Z,6.10
2018-05-29T21:19:16.482Z,6.07
2018-05-29T21:21:44.872Z,6.40
2018-05-29T21:24:13.925Z,6.03
2018-05-29T21:26:42.176Z,6.00
2018-05-29T21:29:11.394Z,6.33
2018-05-29T21:31:40.452Z,6.50
2018-05-29T21:34:08.696Z,6.03
2018-05-29T21:36:36.977Z,6.63
2018-05-29T21:39:06.033Z,6.20
2018-05-29T21:41:36.230Z,6.57
2018-05-29T21:44:05.289Z,6.20
2018-05-29T21:46:33.574Z,6.47
2018-05-29T21:49:01.850Z,6.50
2018-05-29T21:51:30.105Z,6.70
2018-05-29T21:54:00.370Z,6.17
2018-05-29T21:56:28.619Z,6.90
2018-05-29T21:58:57.747Z,7.00
2018-05-29T22:01:26.104Z,6.60
2018-05-29T22:04:08.903Z,6.57
2018-05-29T22:06:37.265Z,6.70
2018-05-29T22:09:06.375Z,6.00
2018-05-29T22:11:34.691Z,7.05
2018-05-29T22:14:03.058Z,6.40
2018-05-29T22:16:32.072Z,6.70
2018-05-29T22:19:00.503Z,5.87
2018-05-29T22:21:28.748Z,6.07
2018-05-29T22:23:57.029Z,6.33
2018-05-29T22:26:26.360Z,6.18
2018-05-29T22:28:54.624Z,5.50
2018-05-29T22:31:23.652Z,5.80
2018-05-29T22:33:52.761Z,6.10
2018-05-29T22:36:21.790Z,6.57
2018-05-29T22:38:50.062Z,6.00
2018-05-29T22:41:18.354Z,6.47
2018-05-29T22:43:46.612Z,6.03
2018-05-29T22:46:14.868Z,6.60
2018-05-29T22:48:43.147Z,6.53
2018-05-29T22:51:11.496Z,6.40
2018-05-29T22:53:40.588Z,6.27
2018-05-29T22:56:08.904Z,6.17
2018-05-29T22:58:38.121Z,6.00
2018-05-29T23:01:07.336Z,6.50
2018-05-29T23:03:35.607Z,6.47
2018-05-29T23:06:04.624Z,5.70
2018-05-29T23:08:32.879Z,6.30
2018-05-29T23:11:01.174Z,5.93
2018-05-29T23:13:29.420Z,6.30
2018-05-29T23:15:57.800Z,5.83
2018-05-29T23:18:26.145Z,6.27
2018-05-29T23:20:54.368Z,5.77
2018-05-29T23:23:23.375Z,6.20
2018-05-29T23:25:52.501Z,6.60
2018-05-29T23:28:20.774Z,5.90
2018-05-29T23:30:49.832Z,6.60
2018-05-29T23:33:18.079Z,5.57
2018-05-29T23:35:47.093Z,6.27
2018-05-29T23:38:15.450Z,6.50
2018-05-29T23:40:43.782Z,6.40
2018-05-29T23:43:12.053Z,6.97
2018-05-29T23:45:41.096Z,6.33
2018-05-29T23:48:09.369Z,6.40
2018-05-29T23:50:37.651Z,7.47
2018-05-29T23:53:05.930Z,6.63
2018-05-29T23:55:35.045Z,6.57
2018-05-29T23:58:04.061Z,6.43
